Hotchkiss, Canada
Current Conditions -  °F | °C
As of 12:00 PM on Monday 22 Dec 2014 (Local Time) from CYPE Reporting Station
Broken Clouds Broken Clouds  
Wind Chill:   Ceiling: 6000
Heat Index:   Visibility: 15mi
Dew Point:   Wind: 3mph
Humidity: 85%   Direction: 190°S
Pressure: 29.88"   Gusts: NA
Location:  57.06°N, 117.55°W
Report Text: CYPE 221900Z 19003KT 15SM BKN060 M15/M17 A2988 RMK SC7 SLP168
Loading
Personal Weather Stations






























Interactive Weather Map New forecast layout! Learn more

10-Day Weather Forecast

Advertisements
Track Severe Weather on mobile